Terminal Aerodrome Forecast
Issued by NWS

Home | Current Version | Previous Version | Text Only | Print | Product List | Glossary On
Versions: 1 2 3 4 5 6 7 8 9 10 11 12 13 14 15 16 17 18 19 20 21 22
000
FTUS41 KAKQ 281700
TAFPHF
TAF
KPHF 281723Z 2818/0118 02007KT P6SM BKN200
     FM010000 05004KT P6SM BKN100 OVC180
     FM010700 06003KT P6SM OVC050
     FM011500 03005KT 6SM -RAPL BR OVC025=

USA.gov is the U.S. government's official web portal to all federal, state and local government web resources and services.